Time;durP1;ratioP1;P1;durP2;ratioP2;P2;SDS_P1;SDS_P2;PMS_P1;PMS_P2;Temp;Humidity;BMP_temperature;BMP_pressure;BME280_temperature;BME280_humidity;BME280_pressure;Samples;Min_cycle;Max_cycle;Signal;HPM_P1;HPM_P2
2022/12/01 00:00:43;;;;;;;99.00;37.67;;;1.60;99.90;;;;;;5093877;28;20024;-88
2022/12/01 00:03:09;;;;;;;101.45;36.15;;;1.60;99.90;;;;;;5101808;28;20023;-88
2022/12/01 00:05:35;;;;;;;101.78;33.72;;;1.60;99.90;;;;;;5097182;28;20030;-87
2022/12/01 00:08:01;;;;;;;98.20;35.08;;;1.50;99.90;;;;;;5085322;28;20028;-88
2022/12/01 00:10:27;;;;;;;102.78;35.78;;;1.40;99.90;;;;;;5106642;28;20024;-87
2022/12/01 00:12:58;;;;;;;101.68;35.15;;;1.50;99.90;;;;;;5084338;28;20139;-88
2022/12/01 00:15:36;;;;;;;101.90;38.83;;;1.50;99.90;;;;;;5103254;28;20034;-88
2022/12/01 00:18:04;;;;;;;109.57;40.10;;;1.50;99.90;;;;;;5092884;28;20126;-87
2022/12/01 00:20:33;;;;;;;117.35;37.47;;;1.40;99.90;;;;;;5106067;28;20387;-88
2022/12/01 00:22:59;;;;;;;106.05;38.83;;;1.50;99.90;;;;;;5110602;27;20112;-88
2022/12/01 00:25:26;;;;;;;93.88;34.97;;;1.40;99.90;;;;;;5091126;28;20024;-88
2022/12/01 00:27:52;;;;;;;111.95;38.58;;;1.50;99.90;;;;;;5089246;28;20024;-86
2022/12/01 00:30:19;;;;;;;106.13;37.55;;;1.50;99.90;;;;;;5075704;28;20514;-85
2022/12/01 00:32:45;;;;;;;117.75;39.95;;;1.50;99.90;;;;;;5106742;28;20043;-86
2022/12/01 00:35:12;;;;;;;113.07;39.40;;;1.50;99.90;;;;;;5078121;28;20028;-86
2022/12/01 00:37:38;;;;;;;107.78;40.03;;;1.50;99.90;;;;;;5107422;28;20036;-88
2022/12/01 00:40:06;;;;;;;100.55;38.42;;;1.40;99.90;;;;;;5097671;28;20028;-88
2022/12/01 00:42:31;;;;;;;108.03;36.55;;;1.40;99.90;;;;;;5090884;28;20024;-88
2022/12/01 00:44:57;;;;;;;113.10;39.95;;;1.40;99.90;;;;;;5093771;28;20089;-88
2022/12/01 00:47:24;;;;;;;112.20;39.90;;;1.30;99.90;;;;;;5075160;28;20500;-88
2022/12/01 00:49:51;;;;;;;114.22;39.47;;;1.30;99.90;;;;;;5107264;28;20038;-88
2022/12/01 00:52:18;;;;;;;118.13;40.58;;;1.30;99.90;;;;;;5093952;28;20033;-87
2022/12/01 00:54:44;;;;;;;110.60;37.42;;;1.30;99.90;;;;;;5108090;28;20036;-88
2022/12/01 00:57:10;;;;;;;108.45;37.25;;;1.30;99.90;;;;;;5076561;28;20381;-87
2022/12/01 00:59:35;;;;;;;111.68;37.88;;;1.20;99.90;;;;;;5091232;28;20035;-88
2022/12/01 01:02:02;;;;;;;116.45;39.53;;;1.30;99.90;;;;;;5095171;28;20158;-88
2022/12/01 01:04:29;;;;;;;119.45;39.03;;;1.20;99.90;;;;;;5086419;28;20016;-88
2022/12/01 01:07:17;;;;;;;104.72;37.88;;;1.20;99.90;;;;;;5101718;28;20029;-88
2022/12/01 01:09:43;;;;;;;101.13;36.38;;;1.20;99.90;;;;;;5121095;28;20387;-87
2022/12/01 01:12:08;;;;;;;106.53;39.50;;;1.20;99.90;;;;;;5081656;28;20029;-88
2022/12/01 01:14:34;;;;;;;103.85;37.92;;;1.10;99.90;;;;;;5108895;28;20394;-88
2022/12/01 01:17:01;;;;;;;99.63;37.22;;;1.10;99.90;;;;;;5096080;28;20020;-88
2022/12/01 01:19:26;;;;;;;107.05;35.50;;;1.10;99.90;;;;;;5104682;28;20480;-87
2022/12/01 01:21:52;;;;;;;103.13;35.30;;;1.10;99.90;;;;;;5088707;28;20032;-88
2022/12/01 01:24:18;;;;;;;103.25;36.08;;;1.10;99.90;;;;;;5073863;28;20059;-87
2022/12/01 01:26:44;;;;;;;116.13;37.38;;;1.10;99.90;;;;;;5104490;28;20382;-88
2022/12/01 01:29:09;;;;;;;101.18;36.42;;;1.10;99.90;;;;;;5076366;28;20032;-88
2022/12/01 01:31:35;;;;;;;103.57;36.38;;;1.10;99.90;;;;;;5105554;28;20456;-88
2022/12/01 01:34:02;;;;;;;101.50;36.17;;;1.10;99.90;;;;;;5099988;28;20070;-88
2022/12/01 01:36:28;;;;;;;94.18;35.63;;;1.10;99.90;;;;;;5094206;28;20480;-88
2022/12/01 01:38:54;;;;;;;88.90;34.65;;;1.10;99.90;;;;;;5109204;28;20160;-88
2022/12/01 01:41:21;;;;;;;102.22;35.03;;;1.10;99.90;;;;;;5078109;28;20126;-88
2022/12/01 01:43:51;;;;;;;96.50;34.20;;;1.10;99.90;;;;;;5109776;27;20047;-88
2022/12/01 01:46:45;;;;;;;88.85;33.67;;;1.10;99.90;;;;;;5080103;28;20020;-88
2022/12/01 01:49:13;;;;;;;87.88;31.60;;;1.00;99.90;;;;;;5085433;28;20483;-88
2022/12/01 01:51:45;;;;;;;85.65;32.80;;;1.00;99.90;;;;;;5096587;28;20447;-87
2022/12/01 01:54:22;;;;;;;96.13;35.83;;;1.00;99.90;;;;;;5071679;28;20028;-88
2022/12/01 01:56:50;;;;;;;97.18;33.05;;;1.10;99.90;;;;;;5089817;28;20383;-87
2022/12/01 01:59:28;;;;;;;86.97;33.70;;;1.00;99.90;;;;;;5092094;28;20118;-88
2022/12/01 02:02:01;;;;;;;92.15;32.67;;;1.00;99.90;;;;;;5091012;28;20023;-87
2022/12/01 02:04:28;;;;;;;87.95;30.55;;;1.00;99.90;;;;;;5098221;28;20421;-87
2022/12/01 02:06:54;;;;;;;84.03;32.22;;;1.00;99.90;;;;;;5104410;28;20374;-88
2022/12/01 02:09:20;;;;;;;86.10;31.98;;;0.90;99.90;;;;;;5096225;28;20020;-88
2022/12/01 02:12:27;;;;;;;85.13;31.90;;;0.90;99.90;;;;;;5096072;28;20059;-87
2022/12/01 02:15:18;;;;;;;79.10;31.48;;;0.90;99.90;;;;;;5091392;28;20020;-88
2022/12/01 02:17:50;;;;;;;;;;;0.90;99.90;;;;;;5096502;28;20042;-88
2022/12/01 02:20:34;;;;;;;;;;;0.90;99.90;;;;;;5082186;28;19966;-88
2022/12/01 02:23:00;;;;;;;93.05;30.65;;;0.90;99.90;;;;;;5076359;28;20247;-88
2022/12/01 02:25:28;;;;;;;82.88;30.52;;;0.90;99.90;;;;;;5101158;28;20083;-87
2022/12/01 02:28:19;;;;;;;85.50;31.10;;;0.90;99.90;;;;;;5100532;28;20408;-88
2022/12/01 02:30:57;;;;;;;85.13;30.63;;;0.90;99.90;;;;;;5085310;28;20031;-88
2022/12/01 02:33:34;;;;;;;84.50;32.10;;;0.90;99.90;;;;;;5097753;28;20322;-88
2022/12/01 02:44:17;;;;;;;78.47;29.88;;;0.90;99.90;;;;;;5081231;28;20032;-88
2022/12/01 02:47:03;;;;;;;66.15;26.15;;;0.90;99.90;;;;;;5092708;28;20079;-88
2022/12/01 02:49:39;;;;;;;68.75;27.45;;;0.90;99.90;;;;;;5076819;28;20082;-88
2022/12/01 02:52:05;;;;;;;79.63;28.90;;;0.80;99.90;;;;;;5114042;27;20024;-88
2022/12/01 02:54:32;;;;;;;78.18;27.58;;;0.80;99.90;;;;;;5087350;28;20012;-87
2022/12/01 02:56:58;;;;;;;76.13;28.33;;;0.80;99.90;;;;;;5087125;28;20027;-88
2022/12/01 02:59:24;;;;;;;64.65;25.20;;;0.90;99.90;;;;;;5080261;28;20046;-87
2022/12/01 03:02:03;;;;;;;67.85;26.90;;;0.90;99.90;;;;;;5097810;28;20033;-87
2022/12/01 03:04:45;;;;;;;67.30;25.23;;;0.90;99.90;;;;;;5087868;28;20020;-87
2022/12/01 03:07:16;;;;;;;63.38;25.02;;;0.90;99.90;;;;;;5072381;28;20077;-88
2022/12/01 03:09:53;;;;;;;;;;;0.80;99.90;;;;;;5104630;28;20029;-87
2022/12/01 03:12:36;;;;;;;79.13;30.17;;;0.80;99.90;;;;;;5084928;28;19908;-88
2022/12/01 03:15:23;;;;;;;59.35;25.00;;;0.80;99.90;;;;;;5079289;28;20027;-88
2022/12/01 03:18:16;;;;;;;49.35;20.40;;;0.80;99.90;;;;;;5090725;28;20027;-88
2022/12/01 03:20:47;;;;;;;53.42;20.67;;;0.80;99.90;;;;;;5085763;28;20093;-87
2022/12/01 03:23:24;;;;;;;58.30;22.52;;;0.80;99.90;;;;;;5078893;28;20051;-88
2022/12/01 03:25:53;;;;;;;56.75;24.40;;;0.80;99.90;;;;;;5110147;28;20031;-87
2022/12/01 03:28:27;;;;;;;62.13;23.73;;;0.80;99.90;;;;;;5079865;28;20017;-87
2022/12/01 03:30:58;;;;;;;55.40;23.27;;;0.80;99.90;;;;;;5097959;28;20055;-88
2022/12/01 03:33:30;;;;;;;51.60;22.27;;;0.80;99.90;;;;;;5085392;28;20032;-88
2022/12/01 03:36:05;;;;;;;60.22;24.13;;;0.80;99.90;;;;;;5099637;28;20269;-88
2022/12/01 03:38:35;;;;;;;56.45;21.17;;;0.80;99.90;;;;;;5100547;28;20024;-88
2022/12/01 03:41:13;;;;;;;49.67;23.67;;;0.80;99.90;;;;;;5094853;28;20072;-88
2022/12/01 03:43:44;;;;;;;54.22;22.83;;;0.80;99.90;;;;;;5089459;28;20114;-88
2022/12/01 03:46:35;;;;;;;56.63;23.70;;;0.90;99.90;;;;;;5089777;28;20035;-88
2022/12/01 03:49:02;;;;;;;57.65;22.23;;;0.90;99.90;;;;;;5075109;28;20062;-88
2022/12/01 03:52:06;;;;;;;56.72;23.75;;;0.90;99.90;;;;;;5094321;28;20490;-88
2022/12/01 03:54:45;;;;;;;55.00;22.10;;;0.90;99.90;;;;;;5074831;28;20043;-88
2022/12/01 03:57:17;;;;;;;53.08;22.27;;;0.90;99.90;;;;;;5097949;28;20471;-88
2022/12/01 03:59:46;;;;;;;53.65;21.50;;;0.90;99.90;;;;;;5090783;28;20039;-87
2022/12/01 04:02:12;;;;;;;48.22;20.88;;;0.90;99.90;;;;;;5076357;28;20028;-88
2022/12/01 04:04:38;;;;;;;46.35;21.15;;;0.90;99.90;;;;;;5097975;28;20110;-88
2022/12/01 04:07:03;;;;;;;52.28;20.90;;;0.90;99.90;;;;;;5081094;28;20054;-87
2022/12/01 04:09:29;;;;;;;51.90;21.58;;;0.80;99.90;;;;;;5104652;28;20021;-87
2022/12/01 04:14:39;;;;;;;45.35;20.67;;;0.80;99.90;;;;;;5104283;28;20122;-88
2022/12/01 04:17:05;;;;;;;54.13;23.33;;;0.80;99.90;;;;;;5080313;28;20478;-88
2022/12/01 04:19:31;;;;;;;58.63;22.33;;;0.80;99.90;;;;;;5090187;28;20538;-88
2022/12/01 04:21:56;;;;;;;55.38;23.08;;;0.80;99.90;;;;;;5083120;28;20028;-88
2022/12/01 04:24:22;;;;;;;53.35;21.80;;;0.80;99.90;;;;;;5102289;28;20028;-88
2022/12/01 04:26:48;;;;;;;51.35;22.90;;;0.90;99.90;;;;;;5088659;28;20481;-88
2022/12/01 04:29:13;;;;;;;53.35;22.52;;;0.80;99.90;;;;;;5090981;28;20100;-87
2022/12/01 04:31:39;;;;;;;61.30;25.10;;;0.90;99.90;;;;;;5102359;28;20466;-87
2022/12/01 04:34:20;;;;;;;55.80;24.02;;;0.90;99.90;;;;;;5075693;28;20021;-88
2022/12/01 04:36:46;;;;;;;54.08;23.70;;;0.90;99.90;;;;;;5105422;28;20084;-88
2022/12/01 04:39:12;;;;;;;53.78;24.15;;;0.90;99.90;;;;;;5093151;28;20033;-87
2022/12/01 04:41:38;;;;;;;60.25;23.60;;;0.90;99.90;;;;;;5105371;28;20490;-88
2022/12/01 04:44:04;;;;;;;52.35;23.27;;;0.90;99.90;;;;;;5083558;28;20459;-88
2022/12/01 04:46:29;;;;;;;58.58;24.55;;;0.90;99.90;;;;;;5100034;28;20030;-87
2022/12/01 04:48:55;;;;;;;59.53;23.58;;;0.90;99.90;;;;;;5095834;28;20046;-87
2022/12/01 04:51:22;;;;;;;53.97;21.83;;;0.90;99.90;;;;;;5091110;28;20053;-88
2022/12/01 04:53:49;;;;;;;59.05;22.98;;;0.90;99.90;;;;;;5098069;28;20059;-87
2022/12/01 04:56:14;;;;;;;63.33;24.13;;;0.90;99.90;;;;;;5101827;28;20032;-87
2022/12/01 04:58:40;;;;;;;145.15;60.70;;;0.90;99.90;;;;;;5090706;28;20124;-88
2022/12/01 05:01:14;;;;;;;59.00;25.23;;;0.90;99.90;;;;;;5095234;28;20052;-87
2022/12/01 05:03:43;;;;;;;50.50;21.80;;;0.90;99.90;;;;;;5090582;28;20038;-88
2022/12/01 05:06:15;;;;;;;56.83;23.92;;;0.90;99.90;;;;;;5080906;28;20401;-87
2022/12/01 05:08:40;;;;;;;56.80;24.90;;;0.90;99.90;;;;;;5102596;28;20085;-88
2022/12/01 05:11:07;;;;;;;58.67;23.83;;;0.90;99.90;;;;;;5086796;28;20031;-88
2022/12/01 05:13:39;;;;;;;55.13;23.48;;;0.90;99.90;;;;;;5091159;28;20168;-88
2022/12/01 05:16:09;;;;;;;59.92;24.85;;;0.90;99.90;;;;;;5095794;28;20067;-88
2022/12/01 05:18:35;;;;;;;59.67;24.65;;;0.90;99.90;;;;;;5106690;28;20486;-88
2022/12/01 05:21:02;;;;;;;55.50;24.35;;;0.90;99.90;;;;;;5081016;28;20157;-88
2022/12/01 05:23:33;;;;;;;56.67;23.23;;;0.90;99.90;;;;;;5108075;28;20019;-88
2022/12/01 05:25:59;;;;;;;56.77;24.57;;;0.90;99.90;;;;;;5096442;28;20024;-88
2022/12/01 05:28:26;;;;;;;55.20;23.35;;;1.00;99.90;;;;;;5111909;28;20269;-87
2022/12/01 05:30:53;;;;;;;55.70;23.15;;;0.90;99.90;;;;;;5102371;28;20035;-87
2022/12/01 05:33:19;;;;;;;56.88;21.77;;;0.90;99.90;;;;;;5076568;28;20149;-88
2022/12/01 05:35:47;;;;;;;55.88;22.95;;;0.90;99.90;;;;;;5107905;28;20035;-88
2022/12/01 05:38:13;;;;;;;56.42;23.77;;;0.90;99.90;;;;;;5095691;28;20046;-88
2022/12/01 05:40:38;;;;;;;60.92;23.58;;;0.90;99.90;;;;;;5108360;28;20033;-87
2022/12/01 05:43:05;;;;;;;58.15;23.85;;;0.90;99.90;;;;;;5098706;28;20032;-87
2022/12/01 05:46:14;;;;;;;52.03;21.60;;;0.90;99.90;;;;;;5098038;28;20115;-87
2022/12/01 05:48:41;;;;;;;59.70;22.50;;;0.90;99.90;;;;;;5102618;28;20467;-87
2022/12/01 05:51:12;;;;;;;56.58;23.65;;;0.90;99.90;;;;;;5104406;28;20030;-86
2022/12/01 05:53:38;;;;;;;;;;;0.90;99.90;;;;;;5101655;28;20055;-87
2022/12/01 05:56:05;;;;;;;64.28;23.42;;;0.90;99.90;;;;;;5105136;28;19915;-87
2022/12/01 05:58:30;;;;;;;57.08;23.77;;;0.90;99.90;;;;;;5095888;28;20059;-87
2022/12/01 06:00:56;;;;;;;66.60;25.85;;;0.90;99.90;;;;;;5095849;28;20501;-88
2022/12/01 06:03:22;;;;;;;50.67;22.60;;;0.90;99.90;;;;;;5094690;28;20088;-87
2022/12/01 06:05:48;;;;;;;57.40;23.58;;;0.90;99.90;;;;;;5095147;28;20472;-88
2022/12/01 06:08:14;;;;;;;67.10;25.15;;;0.90;99.90;;;;;;5093988;28;20433;-88
2022/12/01 06:10:40;;;;;;;62.22;24.52;;;0.90;99.90;;;;;;5089845;28;20063;-87
2022/12/01 06:13:05;;;;;;;66.35;25.38;;;0.80;99.90;;;;;;5093057;28;20066;-87
2022/12/01 06:15:31;;;;;;;60.17;23.75;;;0.90;99.90;;;;;;5095388;28;20055;-87
2022/12/01 06:18:00;;;;;;;62.20;24.42;;;0.80;99.90;;;;;;5095428;28;20020;-88
2022/12/01 06:20:26;;;;;;;66.10;25.80;;;0.80;99.90;;;;;;5093930;28;20031;-87
2022/12/01 06:22:52;;;;;;;56.38;23.77;;;0.80;99.90;;;;;;5095707;28;20112;-88
2022/12/01 06:25:18;;;;;;;56.80;23.40;;;0.80;99.90;;;;;;5103617;28;20032;-88
2022/12/01 06:27:44;;;;;;;66.75;25.88;;;0.80;99.90;;;;;;5100935;28;20489;-88
2022/12/01 06:30:10;;;;;;;65.93;25.13;;;0.80;99.90;;;;;;5104351;28;20050;-88
2022/12/01 06:32:35;;;;;;;56.05;23.83;;;0.80;99.90;;;;;;5102378;28;20035;-88
2022/12/01 06:35:01;;;;;;;55.22;23.85;;;0.80;99.90;;;;;;5096282;28;20433;-87
2022/12/01 06:37:27;;;;;;;61.92;24.33;;;0.80;99.90;;;;;;5089794;28;20027;-87
2022/12/01 06:39:53;;;;;;;66.85;25.15;;;0.80;99.90;;;;;;5095679;28;20028;-87
2022/12/01 06:42:18;;;;;;;63.80;24.40;;;0.80;99.90;;;;;;5093177;28;20111;-88
2022/12/01 06:44:45;;;;;;;59.67;23.70;;;0.80;99.90;;;;;;5100726;28;20455;-88
2022/12/01 06:47:10;;;;;;;60.80;25.33;;;0.80;99.90;;;;;;5077879;28;20024;-88
2022/12/01 06:49:48;;;;;;;65.28;24.52;;;0.80;99.90;;;;;;5106544;28;20061;-88
2022/12/01 06:52:14;;;;;;;62.60;25.15;;;0.80;99.90;;;;;;5078785;28;20031;-89
2022/12/01 06:54:40;;;;;;;64.40;25.35;;;0.80;99.90;;;;;;5110120;28;20023;-88
2022/12/01 06:57:05;;;;;;;62.85;25.45;;;0.80;99.90;;;;;;5084271;28;20352;-88
2022/12/01 06:59:31;;;;;;;59.38;24.67;;;0.80;99.90;;;;;;5092154;28;20058;-86
2022/12/01 07:01:57;;;;;;;62.00;24.67;;;0.80;99.90;;;;;;5070799;28;20028;-85
2022/12/01 07:04:22;;;;;;;64.25;24.67;;;0.80;99.90;;;;;;5083289;28;20533;-86
2022/12/01 07:06:48;;;;;;;57.35;24.27;;;0.80;99.90;;;;;;5107314;28;20075;-86
2022/12/01 07:09:14;;;;;;;64.97;27.80;;;0.90;99.90;;;;;;5081530;28;20025;-86
2022/12/01 07:11:39;;;;;;;60.78;24.48;;;0.80;99.90;;;;;;5109411;28;20024;-86
2022/12/01 07:14:05;;;;;;;61.75;24.42;;;0.90;99.90;;;;;;5080629;28;20039;-86
2022/12/01 07:16:31;;;;;;;68.78;26.85;;;0.80;99.90;;;;;;5107682;27;20032;-86
2022/12/01 07:18:58;;;;;;;62.28;24.75;;;0.80;99.90;;;;;;5106273;28;20391;-86
2022/12/01 07:21:24;;;;;;;63.30;24.40;;;0.80;99.90;;;;;;5074074;28;20377;-86
2022/12/01 07:23:50;;;;;;;63.08;25.58;;;0.80;99.90;;;;;;5107313;27;20133;-86
2022/12/01 07:26:17;;;;;;;60.83;24.67;;;0.90;99.90;;;;;;5094374;28;20468;-86
2022/12/01 07:28:43;;;;;;;68.35;25.90;;;0.90;99.90;;;;;;5107853;28;20032;-86
2022/12/01 07:31:15;;;;;;;63.63;25.17;;;0.90;99.90;;;;;;5097072;28;20031;-86
2022/12/01 07:33:41;;;;;;;64.82;25.30;;;0.90;99.90;;;;;;5093836;28;20024;-86
2022/12/01 07:36:07;;;;;;;60.53;24.52;;;0.90;99.90;;;;;;5086793;28;20783;-86
2022/12/01 07:38:34;;;;;;;64.47;27.08;;;0.90;99.90;;;;;;5091578;28;20044;-86
2022/12/01 07:41:08;;;;;;;60.15;26.10;;;1.00;99.90;;;;;;5092303;28;20020;-86
2022/12/01 07:43:34;;;;;;;64.47;25.90;;;0.90;99.90;;;;;;5094401;28;20402;-86
2022/12/01 07:46:15;;;;;;;61.00;25.25;;;1.00;99.90;;;;;;5092150;28;20027;-86
2022/12/01 07:48:41;;;;;;;65.63;25.92;;;1.00;99.90;;;;;;5085550;28;20049;-86
2022/12/01 07:51:10;;;;;;;63.22;25.23;;;1.00;99.90;;;;;;5100922;28;20039;-86
2022/12/01 07:53:36;;;;;;;65.13;26.23;;;1.00;99.90;;;;;;5093389;28;20035;-86
2022/12/01 07:56:04;;;;;;;56.63;23.40;;;1.00;99.90;;;;;;5090495;28;20024;-86
2022/12/01 07:58:30;;;;;;;65.82;26.88;;;1.00;99.90;;;;;;5099564;28;20027;-86
2022/12/01 08:00:56;;;;;;;60.55;23.92;;;1.00;99.90;;;;;;5094744;28;20106;-86
2022/12/01 08:03:23;;;;;;;58.28;24.95;;;1.10;99.90;;;;;;5100030;28;20027;-86
2022/12/01 08:05:59;;;;;;;63.35;24.40;;;1.10;99.90;;;;;;5095668;28;20498;-87
2022/12/01 08:08:25;;;;;;;57.78;24.25;;;1.10;99.90;;;;;;5100828;28;20462;-86
2022/12/01 08:10:52;;;;;;;65.75;25.30;;;1.10;99.90;;;;;;5097925;28;20032;-86
2022/12/01 08:13:18;;;;;;;58.55;24.33;;;1.10;99.90;;;;;;5089782;28;20028;-86
2022/12/01 08:15:43;;;;;;;57.40;24.08;;;1.10;99.90;;;;;;5084604;28;20066;-86
2022/12/01 08:18:09;;;;;;;65.65;24.75;;;1.10;99.90;;;;;;5096251;28;20027;-86
2022/12/01 08:20:35;;;;;;;50.30;23.00;;;1.20;99.90;;;;;;5098970;28;20019;-86
2022/12/01 08:23:01;;;;;;;61.70;25.05;;;1.20;99.90;;;;;;5078932;28;20043;-86
2022/12/01 08:25:28;;;;;;;51.97;22.38;;;1.20;99.90;;;;;;5100779;28;20094;-86
2022/12/01 08:27:54;;;;;;;59.83;24.95;;;1.30;99.90;;;;;;5092912;28;20404;-87
2022/12/01 08:30:20;;;;;;;60.63;23.55;;;1.30;99.90;;;;;;5102705;28;20023;-86
2022/12/01 08:32:46;;;;;;;51.42;21.88;;;1.30;99.90;;;;;;5088840;28;20470;-87
2022/12/01 08:35:12;;;;;;;50.60;21.50;;;1.30;99.90;;;;;;5096355;28;20114;-87
2022/12/01 08:37:37;;;;;;;54.53;23.95;;;1.30;99.90;;;;;;5090119;28;20059;-87
2022/12/01 08:40:04;;;;;;;55.97;23.48;;;1.30;99.90;;;;;;5095773;28;20110;-86
2022/12/01 08:42:30;;;;;;;50.42;20.75;;;1.40;99.90;;;;;;5089980;28;20024;-86
2022/12/01 08:44:55;;;;;;;50.78;22.60;;;1.40;99.90;;;;;;5087252;28;20030;-86
2022/12/01 08:47:21;;;;;;;53.67;22.35;;;1.40;99.90;;;;;;5090279;28;20021;-86
2022/12/01 08:49:47;;;;;;;50.17;21.33;;;1.40;99.90;;;;;;5105358;28;20115;-87
2022/12/01 08:52:12;;;;;;;44.85;20.30;;;1.40;99.90;;;;;;5093147;28;20036;-87
2022/12/01 08:54:38;;;;;;;49.70;22.15;;;1.50;99.90;;;;;;5122717;27;20024;-87
2022/12/01 08:57:04;;;;;;;47.72;21.27;;;1.50;99.90;;;;;;5095686;28;20154;-88
2022/12/01 08:59:29;;;;;;;46.78;20.00;;;1.50;99.90;;;;;;5105656;28;20384;-87
2022/12/01 09:01:56;;;;;;;43.03;20.10;;;1.60;99.90;;;;;;5121571;28;20028;-86
2022/12/01 09:04:25;;;;;;;48.38;21.05;;;1.60;99.90;;;;;;5091311;28;20071;-87
2022/12/01 09:06:53;;;;;;;50.10;22.35;;;1.60;99.90;;;;;;5105678;28;20039;-87
2022/12/01 09:09:27;;;;;;;48.88;21.65;;;1.70;99.90;;;;;;5075183;28;20762;-87
2022/12/01 09:11:53;;;;;;;46.22;20.02;;;1.70;99.90;;;;;;5108509;28;20124;-86
2022/12/01 09:14:20;;;;;;;56.70;22.50;;;1.60;99.90;;;;;;5093992;28;20483;-87
2022/12/01 09:16:51;;;;;;;46.78;20.77;;;1.60;99.90;;;;;;5094456;28;20076;-87
2022/12/01 09:19:18;;;;;;;46.63;20.02;;;1.70;99.90;;;;;;5086617;28;20024;-86
2022/12/01 09:21:44;;;;;;;52.78;21.17;;;1.80;99.90;;;;;;5094581;28;20040;-87
2022/12/01 09:24:13;;;;;;;46.80;21.98;;;1.90;99.90;;;;;;5088045;28;20016;-86
2022/12/01 09:26:40;;;;;;;47.80;21.25;;;1.80;99.90;;;;;;5092925;28;20024;-87
2022/12/01 09:29:08;;;;;;;48.47;22.23;;;1.90;99.90;;;;;;5090500;28;20093;-87
2022/12/01 09:31:34;;;;;;;49.42;20.92;;;2.00;99.90;;;;;;5075671;28;20032;-87
2022/12/01 09:34:04;;;;;;;47.13;20.35;;;2.00;99.90;;;;;;5079270;28;20027;-87
2022/12/01 09:36:31;;;;;;;41.47;19.10;;;2.10;99.90;;;;;;5096823;28;20861;-87
2022/12/01 09:38:57;;;;;;;46.17;18.60;;;2.10;99.90;;;;;;5073145;28;20450;-87
2022/12/01 09:41:43;;;;;;;40.72;18.73;;;2.10;99.90;;;;;;5101036;28;20039;-86
2022/12/01 09:44:13;;;;;;;43.25;19.77;;;2.20;99.90;;;;;;5076056;28;20042;-87
2022/12/01 09:46:45;;;;;;;41.72;19.60;;;2.20;99.90;;;;;;5081367;28;20039;-88
2022/12/01 09:49:17;;;;;;;43.30;20.52;;;2.20;99.90;;;;;;5097244;28;20030;-87
2022/12/01 09:51:43;;;;;;;43.38;19.65;;;2.10;99.90;;;;;;5088205;28;20038;-87
2022/12/01 09:54:13;;;;;;;39.22;19.15;;;2.10;99.90;;;;;;5101870;28;20031;-87
2022/12/01 09:56:45;;;;;;;40.13;18.88;;;2.10;99.90;;;;;;5091509;28;20024;-88
2022/12/01 09:59:21;;;;;;;40.25;18.63;;;2.20;99.90;;;;;;5093324;28;20024;-88
2022/12/01 10:01:53;;;;;;;43.35;19.45;;;2.20;99.90;;;;;;5107168;28;20031;-87
2022/12/01 10:04:26;;;;;;;40.67;19.13;;;2.20;99.90;;;;;;5077206;28;20059;-87
2022/12/01 10:07:03;;;;;;;43.47;19.23;;;2.20;99.90;;;;;;5109333;28;20040;-87
2022/12/01 10:09:28;;;;;;;46.03;21.35;;;2.30;99.90;;;;;;5077132;28;20024;-88
2022/12/01 10:12:26;;;;;;;40.00;18.77;;;2.30;99.90;;;;;;5111467;28;20076;-88
2022/12/01 10:15:13;;;;;;;43.80;19.38;;;2.30;99.90;;;;;;5104756;28;20036;-87
2022/12/01 10:17:59;;;;;;;43.67;18.85;;;2.20;99.90;;;;;;5092076;28;20041;-88
2022/12/01 10:20:30;;;;;;;44.03;19.83;;;2.30;99.90;;;;;;5084841;28;20038;-87
2022/12/01 10:23:05;;;;;;;41.10;19.73;;;2.30;99.90;;;;;;5096117;28;20116;-87
2022/12/01 10:25:50;;;;;;;38.30;18.23;;;2.30;99.90;;;;;;5103050;28;20068;-88
2022/12/01 10:28:43;;;;;;;42.58;18.95;;;2.30;99.90;;;;;;5102930;28;20028;-88
2022/12/01 10:31:17;;;;;;;40.10;17.98;;;2.30;99.90;;;;;;5076914;28;20615;-87
2022/12/01 10:33:54;;;;;;;36.97;18.05;;;2.40;99.90;;;;;;5094814;28;20558;-88
2022/12/01 10:36:21;;;;;;;40.05;17.38;;;2.50;99.90;;;;;;5084651;28;20068;-87
2022/12/01 10:38:47;;;;;;;37.97;16.80;;;2.50;99.90;;;;;;5096433;28;20081;-87
2022/12/01 10:41:14;;;;;;;37.92;18.48;;;2.60;99.90;;;;;;5090382;28;20401;-87
2022/12/01 10:43:48;;;;;;;42.00;17.75;;;2.60;99.90;;;;;;5097018;28;20020;-88
2022/12/01 10:46:36;;;;;;;38.22;17.98;;;2.60;99.90;;;;;;5093213;28;20031;-87
2022/12/01 10:49:16;;;;;;;47.53;19.30;;;2.60;99.90;;;;;;5087036;28;20387;-88
2022/12/01 10:51:57;;;;;;;39.22;17.70;;;2.60;99.90;;;;;;5100855;28;20036;-88
2022/12/01 10:54:33;;;;;;;40.28;17.73;;;2.60;99.90;;;;;;5104346;28;20104;-88
2022/12/01 10:56:59;;;;;;;36.83;17.00;;;2.70;99.90;;;;;;5093870;28;20494;-88
2022/12/01 10:59:59;;;;;;;40.75;18.73;;;2.70;99.90;;;;;;5090688;28;20406;-88
2022/12/01 11:02:27;;;;;;;35.22;16.60;;;2.90;99.90;;;;;;5094025;28;20066;-88
2022/12/01 11:05:06;;;;;;;33.08;16.23;;;2.80;99.90;;;;;;5104454;28;20035;-87
2022/12/01 11:07:40;;;;;;;37.50;17.02;;;2.90;99.90;;;;;;5100112;28;20031;-87
2022/12/01 11:10:18;;;;;;;37.85;16.65;;;3.00;99.90;;;;;;5094638;28;20488;-87
2022/12/01 11:12:52;;;;;;;43.58;18.75;;;3.00;99.90;;;;;;5102703;28;20025;-88
2022/12/01 11:15:23;;;;;;;37.50;18.63;;;3.00;99.90;;;;;;5100887;28;20024;-88
2022/12/01 11:17:59;;;;;;;40.63;18.85;;;3.10;99.90;;;;;;5094658;28;20025;-88
2022/12/01 11:20:30;;;;;;;34.67;17.55;;;3.10;99.90;;;;;;5100997;28;20031;-87
2022/12/01 11:23:17;;;;;;;37.63;17.77;;;3.30;99.90;;;;;;5096810;28;20031;-88
2022/12/01 11:25:56;;;;;;;41.83;19.33;;;3.30;99.90;;;;;;5083526;28;20032;-88
2022/12/01 11:28:22;;;;;;;39.22;17.92;;;3.40;99.90;;;;;;5103963;28;20161;-87
2022/12/01 11:31:01;;;;;;;38.28;17.63;;;3.40;99.90;;;;;;5100154;28;20538;-88
2022/12/01 11:33:28;;;;;;;38.83;17.67;;;3.50;99.90;;;;;;5090571;28;20051;-87
2022/12/01 11:35:54;;;;;;;39.80;18.45;;;3.50;99.90;;;;;;5106156;28;20123;-88
2022/12/01 11:38:23;;;;;;;40.25;16.80;;;3.60;99.90;;;;;;5091927;28;20029;-88
2022/12/01 11:40:54;;;;;;;33.33;16.42;;;3.50;99.90;;;;;;5107063;28;20562;-87
2022/12/01 11:43:24;;;;;;;;;;;3.50;99.90;;;;;;5094259;28;20548;-89
2022/12/01 11:45:50;;;;;;;36.65;17.30;;;3.60;99.90;;;;;;5083005;28;20031;-88
2022/12/01 11:48:28;;;;;;;33.63;17.00;;;3.60;99.90;;;;;;5087924;28;20477;-88
2022/12/01 11:51:18;;;;;;;36.30;16.50;;;3.50;99.90;;;;;;5083751;28;20038;-88
2022/12/01 11:53:44;;;;;;;41.75;17.42;;;3.50;99.90;;;;;;5081870;28;20040;-86
2022/12/01 11:56:14;;;;;;;47.53;17.95;;;3.50;99.90;;;;;;5090615;28;20038;-85
2022/12/01 11:58:42;;;;;;;35.95;17.05;;;3.40;99.90;;;;;;5080668;28;20035;-88
2022/12/01 12:01:32;;;;;;;37.65;17.13;;;3.40;99.90;;;;;;5082035;28;20038;-88
2022/12/01 12:04:14;;;;;;;39.25;15.60;;;3.40;99.90;;;;;;5095238;28;20044;-87
2022/12/01 12:07:04;;;;;;;37.05;17.75;;;3.40;99.90;;;;;;5105124;28;20124;-87
2022/12/01 12:13:03;;;;;;;38.03;17.02;;;3.80;99.90;;;;;;5094183;28;20034;-88
2022/12/01 12:15:47;;;;;;;37.45;18.05;;;3.80;99.90;;;;;;5082579;28;20028;-88
2022/12/01 12:18:31;;;;;;;35.05;16.67;;;4.00;99.90;;;;;;5080335;28;20038;-88
2022/12/01 12:21:09;;;;;;;31.52;16.40;;;4.10;99.90;;;;;;5094703;28;20035;-88
2022/12/01 12:23:53;;;;;;;38.17;17.08;;;4.10;99.90;;;;;;5104368;28;20028;-88
2022/12/01 12:26:27;;;;;;;33.97;16.25;;;4.00;99.90;;;;;;5093107;28;20031;-88
2022/12/01 12:29:15;;;;;;;36.55;17.88;;;3.90;99.90;;;;;;5108661;28;20121;-88
2022/12/01 12:31:54;;;;;;;36.85;16.35;;;3.70;99.90;;;;;;5094442;28;20055;-88
2022/12/01 12:34:33;;;;;;;34.72;17.02;;;3.40;99.90;;;;;;5096511;28;20031;-88
2022/12/01 12:37:20;;;;;;;34.85;15.80;;;3.00;99.90;;;;;;5079263;28;20034;-88
2022/12/01 12:40:02;;;;;;;35.38;16.48;;;3.00;99.90;;;;;;5078836;28;20068;-88
2022/12/01 12:42:42;;;;;;;38.30;17.75;;;3.00;99.90;;;;;;5101420;28;20027;-88
2022/12/01 12:45:34;;;;;;;33.70;16.98;;;2.90;99.90;;;;;;5086590;28;20077;-87
2022/12/01 12:48:20;;;;;;;39.17;17.80;;;2.70;99.90;;;;;;5080592;28;20035;-88
2022/12/01 12:51:26;;;;;;;37.72;17.13;;;2.60;99.90;;;;;;5081242;28;20075;-88
2022/12/01 12:54:16;;;;;;;39.72;17.27;;;2.60;99.90;;;;;;5093436;27;20517;-88
2022/12/01 12:56:46;;;;;;;37.27;17.57;;;2.60;99.90;;;;;;5099797;28;20070;-88
2022/12/01 12:59:21;;;;;;;34.85;16.10;;;2.70;99.90;;;;;;5072995;28;20032;-88
2022/12/01 13:01:54;;;;;;;39.88;17.45;;;2.70;99.90;;;;;;5103652;28;20032;-88
2022/12/01 13:04:26;;;;;;;35.25;17.05;;;2.80;99.90;;;;;;5073948;28;20029;-88
2022/12/01 13:06:58;;;;;;;;;;;2.80;99.90;;;;;;5106875;28;20418;-88
2022/12/01 13:09:38;;;;;;;42.78;17.92;;;2.80;99.90;;;;;;5074762;28;20002;-88
2022/12/01 13:12:27;;;;;;;35.85;16.90;;;2.90;99.90;;;;;;5109059;28;20047;-88